Gordonville, PA (17529)

4:23 PM EDT on August 22, 2017 (GMT -0400)
Paradise | | Change Station
Active Advisory: Severe Thunderstorm Watch

Elev 365 ft 40.01 °N, 76.14 °W | Updated 6 minutes ago

Clear
Clear
87.3 °F
Feels Like 100 °F
N
0.0
Wind Variable Wind from SSE
Gusts 0.0 mph

Today
High -- | Low -- °F
--% Chance of Precip.
Yesterday
High -- | Low -- °F
Precip. -- in
Pressure 29.84 in
Visibility 10.0 miles
Clouds Clear
Heat Index 100 °F
Dew Point 78 °F
Humidity 74%
Rainfall 0.00 in
Snow Depth Not available.
6:23 AM 7:50 PM
New Moon, 2% visible
METAR KLNS 221953Z 20015G20KT 10SM CLR 33/22 A2985 RMK AO2 SLP105 T03330222
Pressure 29.84 in
Visibility 10.0 miles
Clouds Clear
Heat Index 100 °F
Dew Point 78 °F
Humidity 74%
Rainfall 0.00 in
Snow Depth Not available.
6:23 AM 7:50 PM
New Moon, 2% visible
METAR KLNS 221953Z 20015G20KT 10SM CLR 33/22 A2985 RMK AO2 SLP105 T03330222

Get Your Daily Forecast Email!

Thanks for signing up!

Be on the lookout for a verification email in your inbox.

You'll start receiving severe weather alerts in your inbox..

×

10-Day Weather Forecast

Almanac

Astronomy

Aug. 22, 2017 Rise Set
Actual Time
Civil Twilight
Nautical Twilight
Astronomical Twilight
Moon
Length of Visible Light
Length of Day
Tomorrow will be .
, % of the Moon is Illuminated

Today's Extremes

State Highs State Lows

Community

WunderPhotos

Category 6

Welcome to Category 6. This is the collective home for Weather Underground's featured writeups by Dr. Jeff Masters (right), Bob Henson (left), Chris Burt, and other regular contributors.

Nearby

Air Quality

  Air Quality AQ Index Pollutant
Not available.

Snow Depth

Station Depth Elevation

Earthquake Activity

City Distance Mag. Time & Date
Minimum magnitude displayed is 2.5.

Coastal Water Temperatures

Place Temperature

Stations

Nearby Weather Stations

Station Location Temp. Windchill Dew Point Humidity Wind Precip. Elev Updated Type
                   

Watches & Warnings

Severe Thunderstorm Watch
Issued: 4:19 PM EDT Aug. 22, 2017 – National Weather Service


The National Weather Service has issued Severe Thunderstorm Watch
464 in effect until midnight EDT tonight for the following areas

In Pennsylvania this watch includes 17 counties

In central Pennsylvania

Adams Columbia Cumberland
Dauphin Franklin Fulton
Juniata Lancaster Lebanon
Mifflin Montour Northumberland
Perry Schuylkill Snyder
Union York

This includes the cities of Berwick, Bloomsburg, Carlisle,
Chambersburg, Danville, Gettysburg, Harrisburg, Hershey,
Lancaster, Lebanon, Lewisburg, Lewistown, McConnellsburg,
Mifflintown, Newport, Pottsville, Selinsgrove, Shamokin, Sunbury,
Waynesboro, and York.